createdAt,value
2022-11-19T00:02:35.799Z,26.29
2022-11-19T00:05:24.403Z,26.34
2022-11-19T00:08:16.059Z,26.24
2022-11-19T00:11:09.712Z,26.26
2022-11-19T00:13:58.322Z,25.75
2022-11-19T00:16:47.105Z,25.49
2022-11-19T00:19:35.763Z,25.28
2022-11-19T00:22:24.303Z,25.20
2022-11-19T00:25:13.476Z,25.18
2022-11-19T00:28:03.471Z,25.11
2022-11-19T00:30:52.093Z,25.10
2022-11-19T00:33:42.061Z,25.12
2022-11-19T00:36:30.947Z,25.03
2022-11-19T00:39:21.092Z,24.97
2022-11-19T00:42:10.141Z,24.91
2022-11-19T00:45:00.251Z,24.95
2022-11-19T00:47:48.772Z,24.94
2022-11-19T00:50:37.645Z,24.87
2022-11-19T00:53:26.535Z,24.88
2022-11-19T00:56:16.458Z,24.84
2022-11-19T00:59:05.358Z,24.74
2022-11-19T01:01:55.475Z,24.73
2022-11-19T01:04:44.070Z,24.68
2022-11-19T01:07:32.781Z,24.67
2022-11-19T01:10:21.525Z,24.63
2022-11-19T01:13:27.934Z,24.57
2022-11-19T01:16:18.540Z,24.54
2022-11-19T01:19:10.211Z,24.55
2022-11-19T01:21:58.850Z,24.52
2022-11-19T01:24:47.586Z,24.51
2022-11-19T01:27:36.251Z,24.48
2022-11-19T01:30:24.859Z,24.51
2022-11-19T01:33:13.791Z,24.45
2022-11-19T01:36:04.975Z,24.46
2022-11-19T01:38:54.569Z,24.43
2022-11-19T01:41:43.154Z,24.41
2022-11-19T01:45:02.198Z,24.40
2022-11-19T01:47:50.934Z,24.37
2022-11-19T01:50:41.426Z,24.34
2022-11-19T01:53:33.867Z,24.35
2022-11-19T01:56:23.281Z,24.37
2022-11-19T01:59:16.411Z,24.37
2022-11-19T02:02:05.014Z,24.35
2022-11-19T02:04:57.127Z,24.35
2022-11-19T02:07:50.050Z,24.38
2022-11-19T02:10:50.002Z,24.34
2022-11-19T02:13:41.509Z,24.33
2022-11-19T02:16:36.470Z,24.34
2022-11-19T02:19:45.743Z,24.29
2022-11-19T02:22:51.284Z,24.29
2022-11-19T02:25:55.448Z,24.28
2022-11-19T02:28:48.332Z,24.26
2022-11-19T02:31:41.766Z,24.28
2022-11-19T02:34:33.157Z,24.27
2022-11-19T02:37:27.817Z,24.31
2022-11-19T02:40:21.291Z,24.24
2022-11-19T02:43:13.925Z,24.27
2022-11-19T02:46:05.606Z,24.25
2022-11-19T02:48:56.400Z,24.24
2022-11-19T02:51:45.210Z,24.24
2022-11-19T02:54:33.761Z,24.25
2022-11-19T02:57:22.588Z,24.25
2022-11-19T03:00:38.547Z,24.24
2022-11-19T03:03:44.809Z,24.24
2022-11-19T03:06:34.904Z,24.24
2022-11-19T03:09:24.440Z,24.21
2022-11-19T03:12:19.739Z,24.23
2022-11-19T03:15:36.890Z,24.22
2022-11-19T03:18:29.466Z,24.25
2022-11-19T03:21:23.404Z,24.20
2022-11-19T03:24:15.996Z,24.19
2022-11-19T03:27:07.148Z,24.20
2022-11-19T03:29:59.770Z,24.22
2022-11-19T03:32:52.435Z,24.19
2022-11-19T03:35:43.877Z,24.18
2022-11-19T03:38:35.030Z,24.18
2022-11-19T03:41:26.191Z,24.19
2022-11-19T03:44:17.015Z,24.18
2022-11-19T03:47:10.709Z,24.18
2022-11-19T03:50:01.578Z,24.19
2022-11-19T03:52:50.208Z,24.19
2022-11-19T03:55:42.529Z,24.16
2022-11-19T03:58:39.524Z,24.15
2022-11-19T04:01:28.208Z,24.15
2022-11-19T04:04:34.258Z,24.16
2022-11-19T04:07:24.284Z,24.14
2022-11-19T04:10:12.958Z,24.11
2022-11-19T04:13:01.739Z,24.11
2022-11-19T04:15:51.696Z,24.12
2022-11-19T04:18:40.585Z,24.12
2022-11-19T04:21:29.181Z,24.11
2022-11-19T04:24:18.242Z,24.13
2022-11-19T04:27:06.851Z,24.11
2022-11-19T04:29:55.455Z,24.11
2022-11-19T04:32:45.494Z,24.12
2022-11-19T04:35:34.325Z,24.11
2022-11-19T04:38:23.243Z,24.08
2022-11-19T04:41:11.911Z,24.12
2022-11-19T04:44:00.733Z,24.09
2022-11-19T04:46:49.331Z,24.08
2022-11-19T04:49:39.366Z,24.12
2022-11-19T04:52:27.994Z,24.10
2022-11-19T04:55:16.800Z,24.09
2022-11-19T04:58:05.540Z,24.07
2022-11-19T05:00:54.206Z,24.07
2022-11-19T05:03:42.851Z,24.04
2022-11-19T05:06:33.425Z,24.04
2022-11-19T05:09:22.291Z,24.07
2022-11-19T05:12:11.016Z,24.05
2022-11-19T05:14:59.657Z,24.06
2022-11-19T05:17:48.245Z,24.08
2022-11-19T05:20:36.847Z,24.11
2022-11-19T05:23:26.797Z,24.15
2022-11-19T05:26:15.374Z,24.14
2022-11-19T05:29:04.030Z,24.13
2022-11-19T05:31:52.653Z,24.21
2022-11-19T05:34:41.304Z,24.34
2022-11-19T05:40:20.238Z,24.47
2022-11-19T05:43:09.076Z,24.79
2022-11-19T05:46:01.353Z,24.59
2022-11-19T05:48:50.014Z,24.61
2022-11-19T05:51:38.706Z,24.61
2022-11-19T05:54:27.422Z,24.55
2022-11-19T05:57:17.534Z,24.53
2022-11-19T06:00:16.345Z,24.55
2022-11-19T06:03:05.055Z,24.48
2022-11-19T06:05:54.236Z,24.72
2022-11-19T06:08:42.873Z,25.07
2022-11-19T06:11:57.543Z,25.14
2022-11-19T06:14:47.631Z,25.02
2022-11-19T06:17:36.291Z,25.20
2022-11-19T06:20:25.074Z,25.34
2022-11-19T06:23:13.933Z,25.28
2022-11-19T06:26:03.085Z,25.28
2022-11-19T06:28:51.743Z,25.26
2022-11-19T06:31:41.818Z,25.37
2022-11-19T06:34:30.441Z,24.98
2022-11-19T06:37:19.069Z,24.77
2022-11-19T06:40:09.102Z,24.65
2022-11-19T06:42:57.780Z,24.51
2022-11-19T06:45:46.351Z,24.46
2022-11-19T06:48:36.397Z,24.43
2022-11-19T06:51:25.127Z,24.37
2022-11-19T06:54:13.879Z,24.33
2022-11-19T06:57:02.539Z,24.29
2022-11-19T06:59:51.231Z,24.25
2022-11-19T07:02:40.948Z,24.26
2022-11-19T07:05:30.930Z,24.24
2022-11-19T07:08:19.496Z,24.22
2022-11-19T07:11:22.216Z,24.21
2022-11-19T07:14:11.091Z,24.18
2022-11-19T07:16:59.732Z,24.18
2022-11-19T07:19:48.420Z,24.18
2022-11-19T07:22:38.358Z,24.19
2022-11-19T07:25:27.114Z,24.19
2022-11-19T07:28:15.680Z,24.19
2022-11-19T07:31:06.731Z,24.18
2022-11-19T07:33:55.694Z,24.18
2022-11-19T07:36:44.657Z,24.18
2022-11-19T07:39:34.737Z,24.19
2022-11-19T07:42:40.841Z,24.18
2022-11-19T07:45:29.382Z,24.16
2022-11-19T07:48:17.983Z,24.17
2022-11-19T07:51:06.620Z,24.22
2022-11-19T07:53:56.323Z,24.23
2022-11-19T07:56:46.306Z,24.25
2022-11-19T07:59:34.995Z,24.32
2022-11-19T08:02:23.640Z,24.34
2022-11-19T08:05:12.280Z,24.37
2022-11-19T08:08:00.846Z,24.36
2022-11-19T08:10:49.574Z,24.36
2022-11-19T08:13:39.902Z,24.36
2022-11-19T08:16:46.789Z,24.39
2022-11-19T08:19:35.543Z,24.40
2022-11-19T08:22:24.134Z,24.36
2022-11-19T08:25:12.774Z,24.40
2022-11-19T08:28:01.596Z,24.49
2022-11-19T08:30:51.839Z,24.45
2022-11-19T08:33:40.389Z,24.56
2022-11-19T08:36:29.043Z,24.55
2022-11-19T08:39:17.703Z,24.62
2022-11-19T08:42:24.305Z,24.77
2022-11-19T08:45:18.075Z,24.80
2022-11-19T08:48:10.941Z,24.87
2022-11-19T08:50:59.796Z,24.98
2022-11-19T08:53:48.515Z,25.04
2022-11-19T08:56:37.199Z,25.07
2022-11-19T08:59:25.872Z,25.16
2022-11-19T09:02:14.634Z,25.22
2022-11-19T09:05:04.681Z,25.32
2022-11-19T09:07:53.469Z,25.38
2022-11-19T09:10:42.112Z,25.31
2022-11-19T09:13:30.837Z,25.30
2022-11-19T09:16:19.517Z,25.41
2022-11-19T09:19:08.226Z,25.51
2022-11-19T09:21:58.287Z,25.53
2022-11-19T09:24:46.954Z,25.61
2022-11-19T09:27:35.515Z,25.55
2022-11-19T09:30:24.207Z,25.70
2022-11-19T09:33:12.828Z,25.59
2022-11-19T09:36:01.548Z,25.69
2022-11-19T09:38:51.591Z,25.65
2022-11-19T09:41:45.904Z,25.50
2022-11-19T09:44:52.421Z,25.41
2022-11-19T09:48:08.163Z,25.28
2022-11-19T09:51:00.085Z,25.28
2022-11-19T09:53:52.485Z,25.36
2022-11-19T09:56:43.692Z,25.35
2022-11-19T09:59:35.143Z,25.34
2022-11-19T10:02:24.748Z,25.39
2022-11-19T10:05:16.631Z,25.40
2022-11-19T10:08:17.384Z,25.37
2022-11-19T10:11:21.197Z,25.33
2022-11-19T10:14:17.937Z,25.48
2022-11-19T10:17:16.550Z,25.32
2022-11-19T10:20:19.642Z,25.23
2022-11-19T10:23:13.946Z,25.10
2022-11-19T10:26:05.710Z,25.10
2022-11-19T10:28:58.709Z,25.09
2022-11-19T10:31:48.478Z,25.14
2022-11-19T10:34:38.909Z,25.10
2022-11-19T10:37:31.687Z,25.15
2022-11-19T10:40:22.721Z,25.11
2022-11-19T10:43:22.024Z,25.18
2022-11-19T10:46:15.579Z,25.17
2022-11-19T10:49:04.592Z,25.30
2022-11-19T10:51:53.314Z,25.27
2022-11-19T10:54:42.533Z,25.30
2022-11-19T10:57:33.578Z,25.20
2022-11-19T11:00:22.227Z,25.19
2022-11-19T11:03:20.496Z,25.20
2022-11-19T11:06:10.249Z,25.15
2022-11-19T11:08:59.249Z,25.14
2022-11-19T11:12:05.638Z,25.09
2022-11-19T11:14:54.864Z,25.07
2022-11-19T11:17:45.975Z,25.11
2022-11-19T11:20:36.314Z,25.17
2022-11-19T11:23:27.046Z,25.18
2022-11-19T11:26:21.284Z,25.20
2022-11-19T11:29:27.585Z,25.23
2022-11-19T11:32:29.047Z,25.30
2022-11-19T11:35:31.741Z,25.39
2022-11-19T11:38:23.865Z,25.42
2022-11-19T11:44:27.816Z,25.38
2022-11-19T11:47:17.696Z,25.34
2022-11-19T11:50:09.484Z,25.32
2022-11-19T11:52:58.798Z,25.42
2022-11-19T11:55:58.707Z,25.48
2022-11-19T11:58:47.364Z,25.46
2022-11-19T12:01:35.980Z,25.44
2022-11-19T12:04:25.001Z,25.44
2022-11-19T12:07:20.580Z,25.46
2022-11-19T12:10:19.104Z,25.40
2022-11-19T12:13:27.949Z,25.52
2022-11-19T12:16:21.339Z,25.39
2022-11-19T12:19:19.937Z,25.31
2022-11-19T12:22:15.580Z,25.31
2022-11-19T12:25:23.344Z,25.32
2022-11-19T12:28:41.085Z,25.30
2022-11-19T12:31:39.571Z,25.27
2022-11-19T12:34:49.183Z,25.22
2022-11-19T12:37:50.374Z,25.27
2022-11-19T12:40:44.480Z,25.21
2022-11-19T12:43:57.483Z,25.13
2022-11-19T12:46:52.484Z,25.11
2022-11-19T12:49:57.267Z,25.13
2022-11-19T12:53:07.360Z,25.10
2022-11-19T12:56:04.671Z,25.10
2022-11-19T12:59:02.211Z,25.15
2022-11-19T13:01:54.108Z,25.12
2022-11-19T13:04:46.414Z,25.15
2022-11-19T13:07:37.701Z,25.11
2022-11-19T13:10:28.560Z,25.16
2022-11-19T13:13:20.576Z,25.19
2022-11-19T13:16:12.327Z,25.25
2022-11-19T13:19:12.164Z,25.25
2022-11-19T13:22:04.281Z,25.26
2022-11-19T13:24:55.982Z,25.25
2022-11-19T13:27:45.469Z,25.27
2022-11-19T13:30:36.614Z,25.31
2022-11-19T13:33:29.872Z,25.33
2022-11-19T13:36:21.924Z,25.38
2022-11-19T13:39:15.263Z,25.41
2022-11-19T13:42:22.509Z,25.43
2022-11-19T13:45:15.656Z,25.53
2022-11-19T13:48:07.041Z,25.58
2022-11-19T13:50:59.168Z,25.58
2022-11-19T13:53:48.141Z,25.56
2022-11-19T13:56:40.357Z,25.56
2022-11-19T13:59:33.257Z,25.54
2022-11-19T14:02:41.658Z,25.52
2022-11-19T14:06:08.920Z,25.54
2022-11-19T14:09:20.452Z,25.53
2022-11-19T14:12:42.729Z,25.46
2022-11-19T14:16:05.433Z,25.44
2022-11-19T14:19:13.973Z,25.38
2022-11-19T14:22:20.371Z,25.43
2022-11-19T14:25:28.608Z,25.37
2022-11-19T14:28:42.739Z,25.32
2022-11-19T14:31:31.337Z,25.20
2022-11-19T14:34:28.183Z,25.13
2022-11-19T14:37:20.495Z,25.07
2022-11-19T14:40:16.498Z,25.04
2022-11-19T14:43:44.498Z,25.00
2022-11-19T14:46:33.080Z,24.96
2022-11-19T14:49:34.423Z,24.95
2022-11-19T14:52:24.934Z,24.91
2022-11-19T14:55:22.555Z,24.93
2022-11-19T14:58:21.565Z,24.89
2022-11-19T15:01:20.685Z,24.87
2022-11-19T15:04:12.097Z,24.84
2022-11-19T15:07:01.755Z,24.84
2022-11-19T15:09:54.997Z,24.82
2022-11-19T15:12:51.536Z,24.81
2022-11-19T15:15:42.336Z,24.76
2022-11-19T15:18:59.414Z,24.77
2022-11-19T15:22:14.380Z,24.75
2022-11-19T15:25:29.338Z,24.72
2022-11-19T15:28:28.721Z,24.71
2022-11-19T15:31:31.214Z,24.68
2022-11-19T15:35:03.992Z,24.68
2022-11-19T15:37:56.629Z,24.65
2022-11-19T15:40:47.487Z,24.65
2022-11-19T15:43:41.887Z,24.63
2022-11-19T15:46:36.213Z,24.63
2022-11-19T15:49:26.568Z,24.59
2022-11-19T15:52:20.081Z,24.61
2022-11-19T15:55:12.768Z,24.61
2022-11-19T15:58:02.855Z,24.57
2022-11-19T16:00:53.500Z,24.56
2022-11-19T16:03:42.767Z,24.54
2022-11-19T16:06:31.992Z,24.55
2022-11-19T16:09:23.647Z,24.57
2022-11-19T16:12:39.196Z,24.58
2022-11-19T16:15:46.183Z,24.56
2022-11-19T16:18:46.780Z,24.54
2022-11-19T16:21:38.756Z,24.56
2022-11-19T16:24:48.541Z,24.56
2022-11-19T16:27:41.146Z,24.55
2022-11-19T16:30:31.363Z,24.55
2022-11-19T16:33:21.906Z,24.50
2022-11-19T16:36:16.660Z,24.49
2022-11-19T16:39:05.448Z,24.49
2022-11-19T16:42:15.682Z,24.48
2022-11-19T16:45:10.704Z,24.51
2022-11-19T16:48:00.691Z,24.49
2022-11-19T16:50:49.426Z,24.45
2022-11-19T16:53:48.975Z,24.44
2022-11-19T16:56:41.455Z,24.43
2022-11-19T16:59:30.086Z,24.45
2022-11-19T17:02:21.100Z,24.47
2022-11-19T17:05:13.177Z,24.45
2022-11-19T17:08:07.142Z,24.46
2022-11-19T17:11:41.937Z,24.44
2022-11-19T17:14:47.946Z,24.43
2022-11-19T17:17:40.814Z,24.40
2022-11-19T17:20:53.328Z,24.42
2022-11-19T17:23:50.379Z,24.41
2022-11-19T17:26:40.551Z,24.41
2022-11-19T17:29:29.310Z,24.40
2022-11-19T17:32:18.560Z,24.38
2022-11-19T17:35:09.915Z,24.39
2022-11-19T17:37:58.726Z,24.40
2022-11-19T17:40:49.068Z,24.39
2022-11-19T17:43:57.720Z,24.38
2022-11-19T17:46:46.293Z,24.37
2022-11-19T17:49:34.903Z,24.37
2022-11-19T17:52:25.148Z,24.38
2022-11-19T17:55:18.320Z,24.38
2022-11-19T17:58:09.015Z,24.36
2022-11-19T18:00:58.975Z,24.38
2022-11-19T18:03:47.626Z,24.36
2022-11-19T18:06:37.402Z,24.34
2022-11-19T18:09:25.947Z,24.35
2022-11-19T18:12:15.978Z,24.33
2022-11-19T18:15:04.918Z,24.29
2022-11-19T18:17:55.396Z,24.34
2022-11-19T18:20:44.013Z,24.33
2022-11-19T18:23:32.637Z,24.34
2022-11-19T18:26:23.478Z,24.30
2022-11-19T18:29:12.629Z,24.29
2022-11-19T18:32:01.233Z,24.28
2022-11-19T18:34:51.307Z,24.31
2022-11-19T18:37:39.917Z,24.34
2022-11-19T18:40:28.512Z,24.31
2022-11-19T18:43:39.717Z,24.30
2022-11-19T18:46:28.596Z,24.29
2022-11-19T18:49:17.216Z,24.30
2022-11-19T18:52:08.743Z,24.29
2022-11-19T18:54:57.502Z,24.29
2022-11-19T18:57:46.155Z,24.29
2022-11-19T19:00:34.812Z,24.31
2022-11-19T19:03:23.637Z,24.30
2022-11-19T19:06:12.364Z,24.27
2022-11-19T19:09:02.313Z,24.29
2022-11-19T19:12:13.413Z,24.30
2022-11-19T19:15:02.563Z,24.27
2022-11-19T19:17:51.186Z,24.25
2022-11-19T19:20:39.812Z,24.27
2022-11-19T19:23:28.958Z,24.27
2022-11-19T19:26:19.656Z,24.27
2022-11-19T19:29:08.747Z,24.26
2022-11-19T19:31:58.130Z,24.25
2022-11-19T19:34:46.846Z,24.24
2022-11-19T19:37:35.501Z,24.25
2022-11-19T19:40:24.145Z,24.23
2022-11-19T19:43:14.176Z,24.23
2022-11-19T19:46:06.622Z,24.22
2022-11-19T19:48:56.706Z,24.22
2022-11-19T19:51:45.320Z,24.21
2022-11-19T19:54:33.898Z,24.20
2022-11-19T19:57:22.411Z,24.20
2022-11-19T20:00:13.592Z,24.20
2022-11-19T20:03:02.224Z,24.20
2022-11-19T20:05:50.969Z,24.21
2022-11-19T20:08:40.267Z,24.21
2022-11-19T20:11:29.052Z,24.19
2022-11-19T20:14:17.759Z,24.18
2022-11-19T20:17:07.787Z,24.20
2022-11-19T20:19:56.370Z,24.19
2022-11-19T20:22:44.970Z,24.17
2022-11-19T20:25:34.165Z,24.16
2022-11-19T20:28:22.754Z,24.16
2022-11-19T20:31:13.078Z,24.20
2022-11-19T20:34:05.483Z,24.18
2022-11-19T20:36:54.078Z,24.17
2022-11-19T20:39:42.664Z,24.17
2022-11-19T20:42:48.874Z,24.16
2022-11-19T20:45:37.498Z,24.16
2022-11-19T20:48:26.105Z,24.15
2022-11-19T20:51:16.757Z,24.16
2022-11-19T20:54:07.458Z,24.14
2022-11-19T20:56:57.213Z,24.13
2022-11-19T20:59:45.809Z,24.12
2022-11-19T21:02:34.443Z,24.12
2022-11-19T21:05:23.100Z,24.11
2022-11-19T21:08:13.841Z,24.11
2022-11-19T21:11:04.331Z,24.11
2022-11-19T21:13:53.098Z,24.12
2022-11-19T21:16:41.760Z,24.10
2022-11-19T21:19:30.420Z,24.12
2022-11-19T21:22:19.043Z,24.12
2022-11-19T21:25:12.501Z,24.11
2022-11-19T21:28:01.375Z,24.11
2022-11-19T21:30:53.147Z,24.11
2022-11-19T21:33:41.864Z,24.15
2022-11-19T21:36:30.424Z,24.11
2022-11-19T21:39:20.450Z,24.09
2022-11-19T21:42:10.882Z,24.11
2022-11-19T21:44:59.488Z,24.12
2022-11-19T21:47:48.193Z,24.12
2022-11-19T21:50:40.341Z,24.12
2022-11-19T21:53:28.891Z,24.12
2022-11-19T21:56:17.478Z,24.10
2022-11-19T21:59:07.839Z,24.11
2022-11-19T22:01:56.459Z,24.10
2022-11-19T22:04:44.976Z,24.08
2022-11-19T22:07:33.711Z,24.09
2022-11-19T22:10:22.683Z,24.06
2022-11-19T22:13:11.397Z,24.08
2022-11-19T22:16:01.917Z,24.04
2022-11-19T22:18:51.034Z,24.06
2022-11-19T22:21:40.217Z,24.06
2022-11-19T22:24:28.878Z,24.04
2022-11-19T22:27:17.451Z,24.04
2022-11-19T22:30:07.307Z,24.02
2022-11-19T22:32:57.343Z,24.02
2022-11-19T22:35:46.407Z,24.03
2022-11-19T22:38:36.490Z,24.04
2022-11-19T22:41:25.243Z,24.03
2022-11-19T22:44:13.821Z,24.01
2022-11-19T22:47:02.583Z,24.04
2022-11-19T22:49:52.871Z,24.02
2022-11-19T22:52:41.459Z,24.03
2022-11-19T22:55:30.143Z,24.03
2022-11-19T22:58:18.929Z,24.03
2022-11-19T23:01:08.677Z,24.03
2022-11-19T23:03:58.621Z,24.03
2022-11-19T23:06:48.705Z,24.01
2022-11-19T23:09:37.313Z,24.01
2022-11-19T23:12:43.432Z,24.03
2022-11-19T23:15:32.190Z,24.02
2022-11-19T23:18:21.071Z,24.03
2022-11-19T23:21:17.540Z,24.14
2022-11-19T23:24:08.713Z,24.31
2022-11-19T23:26:57.412Z,24.21
2022-11-19T23:29:46.348Z,24.26
2022-11-19T23:32:35.083Z,24.19
2022-11-19T23:35:23.793Z,24.15
2022-11-19T23:38:12.495Z,24.24
2022-11-19T23:41:03.277Z,24.25
2022-11-19T23:43:54.654Z,24.23
2022-11-19T23:46:43.173Z,24.23
2022-11-19T23:49:31.864Z,24.17
2022-11-19T23:52:20.486Z,24.16
2022-11-19T23:55:09.620Z,24.14
2022-11-19T23:57:59.733Z,24.15
